sensor_id;sensor_type;location;lat;lon;timestamp;P1;durP1;ratioP1;P2;durP2;ratioP2
1154;SDS011;566;48.414;9.118;2022-09-30T00:00:05;12.13;;;5.53;;
1154;SDS011;566;48.414;9.118;2022-09-30T00:02:33;9.25;;;5.20;;
1154;SDS011;566;48.414;9.118;2022-09-30T00:04:59;7.95;;;4.72;;
1154;SDS011;566;48.414;9.118;2022-09-30T00:07:25;8.00;;;4.60;;
1154;SDS011;566;48.414;9.118;2022-09-30T00:09:51;8.13;;;5.15;;
1154;SDS011;566;48.414;9.118;2022-09-30T00:12:18;10.60;;;6.90;;
1154;SDS011;566;48.414;9.118;2022-09-30T00:14:47;11.68;;;7.13;;
1154;SDS011;566;48.414;9.118;2022-09-30T00:17:13;13.30;;;7.93;;
1154;SDS011;566;48.414;9.118;2022-09-30T00:19:40;10.60;;;6.53;;
1154;SDS011;566;48.414;9.118;2022-09-30T00:22:06;12.52;;;8.10;;
1154;SDS011;566;48.414;9.118;2022-09-30T00:24:32;15.45;;;9.65;;
1154;SDS011;566;48.414;9.118;2022-09-30T00:26:57;10.00;;;6.63;;
1154;SDS011;566;48.414;9.118;2022-09-30T00:29:23;13.50;;;8.93;;
1154;SDS011;566;48.414;9.118;2022-09-30T00:31:49;10.55;;;6.75;;
1154;SDS011;566;48.414;9.118;2022-09-30T00:34:15;12.38;;;6.88;;
1154;SDS011;566;48.414;9.118;2022-09-30T00:36:51;9.13;;;5.72;;
1154;SDS011;566;48.414;9.118;2022-09-30T00:39:22;8.18;;;5.97;;
1154;SDS011;566;48.414;9.118;2022-09-30T00:41:51;10.82;;;6.00;;
1154;SDS011;566;48.414;9.118;2022-09-30T00:50:00;10.93;;;6.65;;
1154;SDS011;566;48.414;9.118;2022-09-30T00:52:48;10.23;;;6.15;;
1154;SDS011;566;48.414;9.118;2022-09-30T00:55:23;9.82;;;5.93;;
1154;SDS011;566;48.414;9.118;2022-09-30T00:57:57;9.27;;;5.97;;
1154;SDS011;566;48.414;9.118;2022-09-30T01:00:27;10.73;;;6.25;;
1154;SDS011;566;48.414;9.118;2022-09-30T01:02:52;7.45;;;5.28;;
1154;SDS011;566;48.414;9.118;2022-09-30T01:05:19;10.95;;;6.38;;
1154;SDS011;566;48.414;9.118;2022-09-30T01:07:46;15.60;;;7.45;;
1154;SDS011;566;48.414;9.118;2022-09-30T01:10:13;11.07;;;6.82;;
1154;SDS011;566;48.414;9.118;2022-09-30T01:12:39;9.85;;;6.75;;
1154;SDS011;566;48.414;9.118;2022-09-30T01:15:05;9.80;;;6.60;;
1154;SDS011;566;48.414;9.118;2022-09-30T01:17:34;11.10;;;6.70;;
1154;SDS011;566;48.414;9.118;2022-09-30T01:31:09;13.40;;;8.68;;
1154;SDS011;566;48.414;9.118;2022-09-30T01:42:13;11.88;;;8.07;;
1154;SDS011;566;48.414;9.118;2022-09-30T01:45:12;10.07;;;6.80;;
1154;SDS011;566;48.414;9.118;2022-09-30T01:48:07;12.75;;;7.90;;
1154;SDS011;566;48.414;9.118;2022-09-30T01:50:49;13.25;;;8.73;;
1154;SDS011;566;48.414;9.118;2022-09-30T01:55:53;12.18;;;8.65;;
1154;SDS011;566;48.414;9.118;2022-09-30T02:00:53;15.27;;;9.85;;
1154;SDS011;566;48.414;9.118;2022-09-30T02:03:27;13.50;;;8.57;;
1154;SDS011;566;48.414;9.118;2022-09-30T02:05:57;10.95;;;7.75;;
1154;SDS011;566;48.414;9.118;2022-09-30T02:11:14;17.75;;;11.38;;
1154;SDS011;566;48.414;9.118;2022-09-30T02:13:45;21.88;;;13.60;;
1154;SDS011;566;48.414;9.118;2022-09-30T02:16:25;18.88;;;12.07;;
1154;SDS011;566;48.414;9.118;2022-09-30T02:19:02;23.83;;;13.98;;
1154;SDS011;566;48.414;9.118;2022-09-30T02:21:40;22.05;;;12.30;;
1154;SDS011;566;48.414;9.118;2022-09-30T02:24:10;19.23;;;10.90;;
1154;SDS011;566;48.414;9.118;2022-09-30T02:26:40;19.15;;;10.57;;
1154;SDS011;566;48.414;9.118;2022-09-30T02:29:28;13.95;;;9.38;;
1154;SDS011;566;48.414;9.118;2022-09-30T02:32:00;22.50;;;11.43;;
1154;SDS011;566;48.414;9.118;2022-09-30T02:34:34;22.33;;;12.98;;
1154;SDS011;566;48.414;9.118;2022-09-30T02:39:50;16.05;;;9.95;;
1154;SDS011;566;48.414;9.118;2022-09-30T02:42:26;17.08;;;10.45;;
1154;SDS011;566;48.414;9.118;2022-09-30T02:45:04;15.02;;;10.32;;
1154;SDS011;566;48.414;9.118;2022-09-30T02:51:01;19.38;;;12.30;;
1154;SDS011;566;48.414;9.118;2022-09-30T02:59:22;13.75;;;10.10;;
1154;SDS011;566;48.414;9.118;2022-09-30T03:01:50;15.13;;;10.05;;
1154;SDS011;566;48.414;9.118;2022-09-30T03:04:18;16.10;;;11.07;;
1154;SDS011;566;48.414;9.118;2022-09-30T03:06:48;17.23;;;11.15;;
1154;SDS011;566;48.414;9.118;2022-09-30T03:09:15;17.17;;;11.23;;
1154;SDS011;566;48.414;9.118;2022-09-30T03:11:42;14.13;;;9.63;;
1154;SDS011;566;48.414;9.118;2022-09-30T03:25:13;20.90;;;12.07;;
1154;SDS011;566;48.414;9.118;2022-09-30T03:30:19;14.50;;;9.43;;
1154;SDS011;566;48.414;9.118;2022-09-30T03:44:32;14.50;;;8.77;;
1154;SDS011;566;48.414;9.118;2022-09-30T03:49:30;13.52;;;8.57;;
1154;SDS011;566;48.414;9.118;2022-09-30T03:52:03;18.95;;;10.52;;
1154;SDS011;566;48.414;9.118;2022-09-30T03:54:31;16.40;;;9.80;;
1154;SDS011;566;48.414;9.118;2022-09-30T03:56:57;18.63;;;9.50;;
1154;SDS011;566;48.414;9.118;2022-09-30T03:59:27;17.25;;;9.32;;
1154;SDS011;566;48.414;9.118;2022-09-30T04:01:54;15.82;;;9.98;;
1154;SDS011;566;48.414;9.118;2022-09-30T04:04:23;15.02;;;8.95;;
1154;SDS011;566;48.414;9.118;2022-09-30T04:06:49;15.15;;;9.70;;
1154;SDS011;566;48.414;9.118;2022-09-30T04:09:16;18.45;;;9.50;;
1154;SDS011;566;48.414;9.118;2022-09-30T04:11:42;13.45;;;9.10;;
1154;SDS011;566;48.414;9.118;2022-09-30T04:14:07;16.88;;;9.48;;
1154;SDS011;566;48.414;9.118;2022-09-30T04:16:33;17.40;;;10.38;;
1154;SDS011;566;48.414;9.118;2022-09-30T04:18:59;13.70;;;8.30;;
1154;SDS011;566;48.414;9.118;2022-09-30T04:21:25;18.52;;;10.05;;
1154;SDS011;566;48.414;9.118;2022-09-30T04:23:55;14.00;;;8.10;;
1154;SDS011;566;48.414;9.118;2022-09-30T04:26:21;15.45;;;9.07;;
1154;SDS011;566;48.414;9.118;2022-09-30T04:28:47;18.25;;;9.05;;
1154;SDS011;566;48.414;9.118;2022-09-30T04:31:13;13.45;;;8.23;;
1154;SDS011;566;48.414;9.118;2022-09-30T04:33:41;12.02;;;7.68;;
1154;SDS011;566;48.414;9.118;2022-09-30T04:36:08;8.57;;;5.43;;
1154;SDS011;566;48.414;9.118;2022-09-30T04:38:34;13.07;;;8.23;;
1154;SDS011;566;48.414;9.118;2022-09-30T04:41:01;14.23;;;8.82;;
1154;SDS011;566;48.414;9.118;2022-09-30T04:43:28;12.73;;;7.45;;
1154;SDS011;566;48.414;9.118;2022-09-30T04:45:54;11.45;;;7.07;;
1154;SDS011;566;48.414;9.118;2022-09-30T04:48:22;14.35;;;7.88;;
1154;SDS011;566;48.414;9.118;2022-09-30T04:50:49;12.00;;;7.00;;
1154;SDS011;566;48.414;9.118;2022-09-30T04:53:18;8.77;;;4.90;;
1154;SDS011;566;48.414;9.118;2022-09-30T04:55:44;12.57;;;6.15;;
1154;SDS011;566;48.414;9.118;2022-09-30T04:58:10;10.73;;;6.43;;
1154;SDS011;566;48.414;9.118;2022-09-30T05:00:36;9.32;;;5.68;;
1154;SDS011;566;48.414;9.118;2022-09-30T05:03:02;12.10;;;7.20;;
1154;SDS011;566;48.414;9.118;2022-09-30T05:05:28;12.50;;;6.57;;
1154;SDS011;566;48.414;9.118;2022-09-30T05:08:01;11.20;;;6.88;;
1154;SDS011;566;48.414;9.118;2022-09-30T05:10:29;11.70;;;7.88;;
1154;SDS011;566;48.414;9.118;2022-09-30T05:12:55;12.43;;;6.75;;
1154;SDS011;566;48.414;9.118;2022-09-30T05:15:24;14.60;;;8.77;;
1154;SDS011;566;48.414;9.118;2022-09-30T05:17:51;10.63;;;7.75;;
1154;SDS011;566;48.414;9.118;2022-09-30T05:20:17;13.35;;;8.55;;
1154;SDS011;566;48.414;9.118;2022-09-30T05:22:43;16.02;;;8.48;;
1154;SDS011;566;48.414;9.118;2022-09-30T05:25:09;14.80;;;9.88;;
1154;SDS011;566;48.414;9.118;2022-09-30T05:27:35;12.93;;;8.23;;
1154;SDS011;566;48.414;9.118;2022-09-30T05:30:00;16.63;;;9.75;;
1154;SDS011;566;48.414;9.118;2022-09-30T05:32:26;18.10;;;13.05;;
1154;SDS011;566;48.414;9.118;2022-09-30T05:34:52;27.15;;;15.88;;
1154;SDS011;566;48.414;9.118;2022-09-30T05:37:21;20.15;;;14.77;;
1154;SDS011;566;48.414;9.118;2022-09-30T05:39:47;21.00;;;14.23;;
1154;SDS011;566;48.414;9.118;2022-09-30T05:42:12;26.98;;;15.98;;
1154;SDS011;566;48.414;9.118;2022-09-30T05:44:38;20.15;;;13.02;;
1154;SDS011;566;48.414;9.118;2022-09-30T05:47:04;13.65;;;9.13;;
1154;SDS011;566;48.414;9.118;2022-09-30T05:49:29;17.70;;;9.50;;
1154;SDS011;566;48.414;9.118;2022-09-30T05:51:55;13.90;;;8.80;;
1154;SDS011;566;48.414;9.118;2022-09-30T05:54:21;13.88;;;8.30;;
1154;SDS011;566;48.414;9.118;2022-09-30T05:56:47;12.95;;;8.77;;
1154;SDS011;566;48.414;9.118;2022-09-30T05:59:12;13.68;;;7.93;;
1154;SDS011;566;48.414;9.118;2022-09-30T06:01:38;11.73;;;7.78;;
1154;SDS011;566;48.414;9.118;2022-09-30T06:04:04;15.52;;;8.98;;
1154;SDS011;566;48.414;9.118;2022-09-30T06:06:29;13.55;;;8.45;;
1154;SDS011;566;48.414;9.118;2022-09-30T06:08:55;13.05;;;8.70;;
1154;SDS011;566;48.414;9.118;2022-09-30T06:11:22;16.13;;;9.95;;
1154;SDS011;566;48.414;9.118;2022-09-30T06:13:49;15.55;;;10.70;;
1154;SDS011;566;48.414;9.118;2022-09-30T06:16:15;23.52;;;15.07;;
1154;SDS011;566;48.414;9.118;2022-09-30T06:18:42;16.83;;;13.13;;
1154;SDS011;566;48.414;9.118;2022-09-30T06:21:09;25.35;;;15.82;;
1154;SDS011;566;48.414;9.118;2022-09-30T06:23:37;16.98;;;11.40;;
1154;SDS011;566;48.414;9.118;2022-09-30T06:26:04;12.70;;;8.35;;
1154;SDS011;566;48.414;9.118;2022-09-30T06:28:31;9.85;;;7.30;;
1154;SDS011;566;48.414;9.118;2022-09-30T06:31:03;13.77;;;7.55;;
1154;SDS011;566;48.414;9.118;2022-09-30T06:33:30;8.45;;;5.70;;
1154;SDS011;566;48.414;9.118;2022-09-30T06:35:57;7.90;;;5.38;;
1154;SDS011;566;48.414;9.118;2022-09-30T06:38:23;11.73;;;6.90;;
1154;SDS011;566;48.414;9.118;2022-09-30T06:40:49;11.48;;;7.03;;
1154;SDS011;566;48.414;9.118;2022-09-30T06:43:17;11.93;;;6.60;;
1154;SDS011;566;48.414;9.118;2022-09-30T06:45:44;7.82;;;5.35;;
1154;SDS011;566;48.414;9.118;2022-09-30T06:48:11;9.60;;;5.72;;
1154;SDS011;566;48.414;9.118;2022-09-30T06:50:37;8.98;;;5.50;;
1154;SDS011;566;48.414;9.118;2022-09-30T06:53:04;10.05;;;5.95;;
1154;SDS011;566;48.414;9.118;2022-09-30T06:55:33;6.50;;;4.40;;
1154;SDS011;566;48.414;9.118;2022-09-30T06:58:02;9.82;;;6.70;;
1154;SDS011;566;48.414;9.118;2022-09-30T07:00:29;14.60;;;6.45;;
1154;SDS011;566;48.414;9.118;2022-09-30T07:02:58;9.52;;;5.70;;
1154;SDS011;566;48.414;9.118;2022-09-30T07:05:23;8.00;;;5.60;;
1154;SDS011;566;48.414;9.118;2022-09-30T07:07:50;9.38;;;6.65;;
1154;SDS011;566;48.414;9.118;2022-09-30T07:10:17;10.95;;;7.45;;
1154;SDS011;566;48.414;9.118;2022-09-30T07:12:43;11.05;;;7.28;;
1154;SDS011;566;48.414;9.118;2022-09-30T07:15:08;10.10;;;7.07;;
1154;SDS011;566;48.414;9.118;2022-09-30T07:17:34;10.50;;;6.05;;
1154;SDS011;566;48.414;9.118;2022-09-30T07:20:00;9.05;;;6.18;;
1154;SDS011;566;48.414;9.118;2022-09-30T07:22:26;9.27;;;5.38;;
1154;SDS011;566;48.414;9.118;2022-09-30T07:24:52;9.63;;;6.25;;
1154;SDS011;566;48.414;9.118;2022-09-30T07:27:18;9.80;;;5.25;;
1154;SDS011;566;48.414;9.118;2022-09-30T07:29:45;11.93;;;5.55;;
1154;SDS011;566;48.414;9.118;2022-09-30T07:32:11;10.05;;;5.55;;
1154;SDS011;566;48.414;9.118;2022-09-30T07:34:38;9.75;;;5.60;;
1154;SDS011;566;48.414;9.118;2022-09-30T07:37:08;8.48;;;5.32;;
1154;SDS011;566;48.414;9.118;2022-09-30T07:39:36;9.73;;;5.70;;
1154;SDS011;566;48.414;9.118;2022-09-30T07:42:03;8.77;;;5.70;;
1154;SDS011;566;48.414;9.118;2022-09-30T07:44:29;8.30;;;5.22;;
1154;SDS011;566;48.414;9.118;2022-09-30T07:46:56;9.73;;;7.03;;
1154;SDS011;566;48.414;9.118;2022-09-30T07:49:22;12.07;;;8.35;;
1154;SDS011;566;48.414;9.118;2022-09-30T07:51:49;15.10;;;9.43;;
1154;SDS011;566;48.414;9.118;2022-09-30T07:54:18;12.23;;;8.30;;
1154;SDS011;566;48.414;9.118;2022-09-30T07:56:46;12.07;;;7.68;;
1154;SDS011;566;48.414;9.118;2022-09-30T07:59:13;9.30;;;5.80;;
1154;SDS011;566;48.414;9.118;2022-09-30T08:01:39;10.13;;;6.60;;
1154;SDS011;566;48.414;9.118;2022-09-30T08:04:05;9.95;;;6.57;;
1154;SDS011;566;48.414;9.118;2022-09-30T08:06:35;9.38;;;6.68;;
1154;SDS011;566;48.414;9.118;2022-09-30T08:09:12;9.23;;;7.30;;
1154;SDS011;566;48.414;9.118;2022-09-30T08:11:39;12.07;;;7.72;;
1154;SDS011;566;48.414;9.118;2022-09-30T08:14:07;13.43;;;8.93;;
1154;SDS011;566;48.414;9.118;2022-09-30T08:16:37;11.35;;;7.55;;
1154;SDS011;566;48.414;9.118;2022-09-30T08:19:02;13.98;;;8.13;;
1154;SDS011;566;48.414;9.118;2022-09-30T08:21:29;12.65;;;8.35;;
1154;SDS011;566;48.414;9.118;2022-09-30T08:23:54;12.45;;;7.78;;
1154;SDS011;566;48.414;9.118;2022-09-30T08:26:21;16.35;;;10.50;;
1154;SDS011;566;48.414;9.118;2022-09-30T08:28:46;17.38;;;9.75;;
1154;SDS011;566;48.414;9.118;2022-09-30T08:31:13;15.98;;;10.82;;
1154;SDS011;566;48.414;9.118;2022-09-30T08:36:16;17.50;;;10.73;;
1154;SDS011;566;48.414;9.118;2022-09-30T08:38:43;13.00;;;10.57;;
1154;SDS011;566;48.414;9.118;2022-09-30T08:46:50;16.40;;;10.77;;
1154;SDS011;566;48.414;9.118;2022-09-30T08:52:11;14.55;;;12.10;;
1154;SDS011;566;48.414;9.118;2022-09-30T08:54:45;16.92;;;10.93;;
1154;SDS011;566;48.414;9.118;2022-09-30T08:57:13;14.43;;;10.60;;
1154;SDS011;566;48.414;9.118;2022-09-30T08:59:46;13.10;;;9.82;;
1154;SDS011;566;48.414;9.118;2022-09-30T09:04:51;11.18;;;9.05;;
1154;SDS011;566;48.414;9.118;2022-09-30T09:23:46;8.50;;;6.95;;
1154;SDS011;566;48.414;9.118;2022-09-30T09:26:14;11.10;;;7.53;;
1154;SDS011;566;48.414;9.118;2022-09-30T09:28:42;11.35;;;7.13;;
1154;SDS011;566;48.414;9.118;2022-09-30T09:31:18;10.35;;;6.72;;
1154;SDS011;566;48.414;9.118;2022-09-30T09:33:48;11.05;;;7.18;;
1154;SDS011;566;48.414;9.118;2022-09-30T09:47:27;8.35;;;5.50;;
1154;SDS011;566;48.414;9.118;2022-09-30T09:49:59;7.80;;;4.88;;
1154;SDS011;566;48.414;9.118;2022-09-30T09:52:39;9.50;;;4.85;;
1154;SDS011;566;48.414;9.118;2022-09-30T09:55:08;8.95;;;4.00;;
1154;SDS011;566;48.414;9.118;2022-09-30T09:57:38;5.82;;;3.80;;
1154;SDS011;566;48.414;9.118;2022-09-30T10:00:24;10.43;;;4.25;;
1154;SDS011;566;48.414;9.118;2022-09-30T10:05:44;7.65;;;4.60;;
1154;SDS011;566;48.414;9.118;2022-09-30T10:08:21;7.28;;;4.03;;
1154;SDS011;566;48.414;9.118;2022-09-30T10:10:54;8.15;;;4.78;;
1154;SDS011;566;48.414;9.118;2022-09-30T10:13:31;7.25;;;4.72;;
1154;SDS011;566;48.414;9.118;2022-09-30T10:19:02;6.88;;;4.30;;
1154;SDS011;566;48.414;9.118;2022-09-30T10:21:40;9.73;;;5.20;;
1154;SDS011;566;48.414;9.118;2022-09-30T10:29:56;7.95;;;4.85;;
1154;SDS011;566;48.414;9.118;2022-09-30T10:32:22;8.10;;;5.70;;
1154;SDS011;566;48.414;9.118;2022-09-30T10:34:59;8.98;;;5.80;;
1154;SDS011;566;48.414;9.118;2022-09-30T10:37:29;9.27;;;6.45;;
1154;SDS011;566;48.414;9.118;2022-09-30T10:40:04;9.70;;;7.00;;
1154;SDS011;566;48.414;9.118;2022-09-30T10:42:33;10.88;;;7.03;;
1154;SDS011;566;48.414;9.118;2022-09-30T10:45:06;10.13;;;7.35;;
1154;SDS011;566;48.414;9.118;2022-09-30T10:47:51;10.23;;;7.43;;
1154;SDS011;566;48.414;9.118;2022-09-30T10:50:20;11.52;;;7.13;;
1154;SDS011;566;48.414;9.118;2022-09-30T10:52:55;10.93;;;5.95;;
1154;SDS011;566;48.414;9.118;2022-09-30T10:55:30;13.20;;;6.95;;
1154;SDS011;566;48.414;9.118;2022-09-30T10:58:02;8.95;;;5.95;;
1154;SDS011;566;48.414;9.118;2022-09-30T11:03:50;15.55;;;9.88;;
1154;SDS011;566;48.414;9.118;2022-09-30T11:06:21;11.18;;;6.93;;
1154;SDS011;566;48.414;9.118;2022-09-30T11:11:22;10.18;;;6.88;;
1154;SDS011;566;48.414;9.118;2022-09-30T11:13:55;9.45;;;6.63;;
1154;SDS011;566;48.414;9.118;2022-09-30T11:19:12;8.57;;;5.70;;
1154;SDS011;566;48.414;9.118;2022-09-30T11:21:47;9.95;;;6.65;;
1154;SDS011;566;48.414;9.118;2022-09-30T11:27:17;9.60;;;5.18;;
1154;SDS011;566;48.414;9.118;2022-09-30T11:32:23;7.82;;;5.38;;
1154;SDS011;566;48.414;9.118;2022-09-30T11:41:07;8.57;;;5.38;;
1154;SDS011;566;48.414;9.118;2022-09-30T11:43:56;6.95;;;4.40;;
1154;SDS011;566;48.414;9.118;2022-09-30T12:00:18;9.45;;;4.88;;
1154;SDS011;566;48.414;9.118;2022-09-30T12:05:42;6.45;;;4.20;;
1154;SDS011;566;48.414;9.118;2022-09-30T12:08:32;7.68;;;4.40;;
1154;SDS011;566;48.414;9.118;2022-09-30T12:11:20;8.25;;;4.30;;
1154;SDS011;566;48.414;9.118;2022-09-30T12:13:56;6.18;;;3.60;;
1154;SDS011;566;48.414;9.118;2022-09-30T12:16:45;6.55;;;3.83;;
1154;SDS011;566;48.414;9.118;2022-09-30T12:19:16;8.07;;;4.30;;
1154;SDS011;566;48.414;9.118;2022-09-30T12:22:10;7.57;;;3.45;;
1154;SDS011;566;48.414;9.118;2022-09-30T12:24:43;6.50;;;3.55;;
1154;SDS011;566;48.414;9.118;2022-09-30T12:27:23;6.82;;;3.70;;
1154;SDS011;566;48.414;9.118;2022-09-30T12:29:54;6.82;;;3.40;;
1154;SDS011;566;48.414;9.118;2022-09-30T12:49:31;8.52;;;4.38;;
1154;SDS011;566;48.414;9.118;2022-09-30T12:52:03;7.28;;;3.65;;
1154;SDS011;566;48.414;9.118;2022-09-30T12:54:40;7.80;;;3.50;;
1154;SDS011;566;48.414;9.118;2022-09-30T12:57:11;7.30;;;4.00;;
1154;SDS011;566;48.414;9.118;2022-09-30T12:59:55;5.95;;;3.42;;
1154;SDS011;566;48.414;9.118;2022-09-30T13:02:27;5.70;;;3.35;;
1154;SDS011;566;48.414;9.118;2022-09-30T13:10:50;5.30;;;3.05;;
1154;SDS011;566;48.414;9.118;2022-09-30T13:13:29;7.05;;;3.05;;
1154;SDS011;566;48.414;9.118;2022-09-30T13:15:57;6.00;;;2.65;;
1154;SDS011;566;48.414;9.118;2022-09-30T13:26:54;10.82;;;3.42;;
1154;SDS011;566;48.414;9.118;2022-09-30T13:31:25;5.97;;;2.92;;
1154;SDS011;566;48.414;9.118;2022-09-30T13:36:31;7.53;;;3.30;;
1154;SDS011;566;48.414;9.118;2022-09-30T13:44:36;6.93;;;2.67;;
1154;SDS011;566;48.414;9.118;2022-09-30T13:47:25;14.15;;;10.93;;
1154;SDS011;566;48.414;9.118;2022-09-30T13:52:48;5.18;;;1.90;;
1154;SDS011;566;48.414;9.118;2022-09-30T14:01:01;5.28;;;2.97;;
1154;SDS011;566;48.414;9.118;2022-09-30T14:17:36;3.47;;;1.30;;
1154;SDS011;566;48.414;9.118;2022-09-30T14:23:36;3.15;;;1.60;;
1154;SDS011;566;48.414;9.118;2022-09-30T14:28:47;5.53;;;2.25;;
1154;SDS011;566;48.414;9.118;2022-09-30T14:31:26;4.45;;;1.88;;
1154;SDS011;566;48.414;9.118;2022-09-30T14:33:54;4.47;;;1.70;;
1154;SDS011;566;48.414;9.118;2022-09-30T14:36:20;2.95;;;1.40;;
1154;SDS011;566;48.414;9.118;2022-09-30T14:38:55;3.72;;;1.52;;
1154;SDS011;566;48.414;9.118;2022-09-30T14:41:23;4.18;;;1.70;;
1154;SDS011;566;48.414;9.118;2022-09-30T14:43:54;5.72;;;1.35;;
1154;SDS011;566;48.414;9.118;2022-09-30T14:46:31;4.32;;;1.65;;
1154;SDS011;566;48.414;9.118;2022-09-30T14:49:02;3.83;;;1.63;;
1154;SDS011;566;48.414;9.118;2022-09-30T14:51:37;4.65;;;1.40;;
1154;SDS011;566;48.414;9.118;2022-09-30T14:54:15;4.38;;;1.63;;
1154;SDS011;566;48.414;9.118;2022-09-30T14:56:47;4.05;;;1.92;;
1154;SDS011;566;48.414;9.118;2022-09-30T15:01:51;4.60;;;2.00;;
1154;SDS011;566;48.414;9.118;2022-09-30T15:04:26;7.35;;;1.95;;
1154;SDS011;566;48.414;9.118;2022-09-30T15:06:58;5.65;;;1.80;;
1154;SDS011;566;48.414;9.118;2022-09-30T15:09:42;7.00;;;1.75;;
1154;SDS011;566;48.414;9.118;2022-09-30T15:14:57;3.10;;;1.42;;
1154;SDS011;566;48.414;9.118;2022-09-30T15:17:25;3.78;;;1.30;;
1154;SDS011;566;48.414;9.118;2022-09-30T15:19:56;6.47;;;2.13;;
1154;SDS011;566;48.414;9.118;2022-09-30T15:22:26;5.35;;;2.80;;
1154;SDS011;566;48.414;9.118;2022-09-30T15:24:53;6.88;;;2.90;;
1154;SDS011;566;48.414;9.118;2022-09-30T15:27:22;10.15;;;2.42;;
1154;SDS011;566;48.414;9.118;2022-09-30T15:29:57;5.32;;;1.85;;
1154;SDS011;566;48.414;9.118;2022-09-30T15:32:25;3.40;;;1.73;;
1154;SDS011;566;48.414;9.118;2022-09-30T15:35:19;4.97;;;1.80;;
1154;SDS011;566;48.414;9.118;2022-09-30T15:37:46;4.10;;;2.00;;
1154;SDS011;566;48.414;9.118;2022-09-30T15:40:13;4.00;;;1.63;;
1154;SDS011;566;48.414;9.118;2022-09-30T15:43:01;3.72;;;1.67;;
1154;SDS011;566;48.414;9.118;2022-09-30T15:45:32;6.32;;;1.90;;
1154;SDS011;566;48.414;9.118;2022-09-30T15:48:00;5.22;;;2.25;;
1154;SDS011;566;48.414;9.118;2022-09-30T15:53:04;7.25;;;1.98;;
1154;SDS011;566;48.414;9.118;2022-09-30T15:55:39;4.15;;;1.60;;
1154;SDS011;566;48.414;9.118;2022-09-30T16:03:59;4.10;;;1.75;;
1154;SDS011;566;48.414;9.118;2022-09-30T16:06:29;4.40;;;1.85;;
1154;SDS011;566;48.414;9.118;2022-09-30T16:08:59;3.65;;;1.45;;
1154;SDS011;566;48.414;9.118;2022-09-30T16:11:37;4.18;;;1.80;;
1154;SDS011;566;48.414;9.118;2022-09-30T16:14:06;3.90;;;1.58;;
1154;SDS011;566;48.414;9.118;2022-09-30T16:16:36;3.15;;;1.45;;
1154;SDS011;566;48.414;9.118;2022-09-30T16:19:03;4.07;;;1.50;;
1154;SDS011;566;48.414;9.118;2022-09-30T16:27:18;6.57;;;2.03;;
1154;SDS011;566;48.414;9.118;2022-09-30T16:29:46;7.20;;;2.97;;
1154;SDS011;566;48.414;9.118;2022-09-30T16:32:11;9.80;;;4.78;;
1154;SDS011;566;48.414;9.118;2022-09-30T16:34:38;10.88;;;5.85;;
1154;SDS011;566;48.414;9.118;2022-09-30T16:37:11;13.93;;;7.75;;
1154;SDS011;566;48.414;9.118;2022-09-30T16:39:38;11.48;;;5.53;;
1154;SDS011;566;48.414;9.118;2022-09-30T16:42:10;14.25;;;9.30;;
1154;SDS011;566;48.414;9.118;2022-09-30T16:44:38;11.50;;;5.72;;
1154;SDS011;566;48.414;9.118;2022-09-30T16:47:03;12.35;;;7.38;;
1154;SDS011;566;48.414;9.118;2022-09-30T16:49:29;11.68;;;7.45;;
1154;SDS011;566;48.414;9.118;2022-09-30T16:51:55;16.92;;;10.35;;
1154;SDS011;566;48.414;9.118;2022-09-30T16:54:20;18.88;;;10.45;;
1154;SDS011;566;48.414;9.118;2022-09-30T16:56:46;29.95;;;13.90;;
1154;SDS011;566;48.414;9.118;2022-09-30T16:59:13;38.42;;;23.05;;
1154;SDS011;566;48.414;9.118;2022-09-30T17:01:41;20.48;;;15.43;;
1154;SDS011;566;48.414;9.118;2022-09-30T17:04:07;11.20;;;9.73;;
1154;SDS011;566;48.414;9.118;2022-09-30T17:06:33;7.13;;;5.28;;
1154;SDS011;566;48.414;9.118;2022-09-30T17:09:01;10.48;;;5.88;;
1154;SDS011;566;48.414;9.118;2022-09-30T17:11:28;8.95;;;5.72;;
1154;SDS011;566;48.414;9.118;2022-09-30T17:13:59;11.75;;;6.50;;
1154;SDS011;566;48.414;9.118;2022-09-30T17:16:26;8.23;;;6.03;;
1154;SDS011;566;48.414;9.118;2022-09-30T17:18:52;8.95;;;4.70;;
1154;SDS011;566;48.414;9.118;2022-09-30T17:21:21;6.88;;;3.90;;
1154;SDS011;566;48.414;9.118;2022-09-30T17:23:48;8.73;;;4.68;;
1154;SDS011;566;48.414;9.118;2022-09-30T17:26:14;11.65;;;6.88;;
1154;SDS011;566;48.414;9.118;2022-09-30T17:28:40;12.70;;;8.13;;
1154;SDS011;566;48.414;9.118;2022-09-30T17:31:07;13.63;;;8.38;;
1154;SDS011;566;48.414;9.118;2022-09-30T17:33:34;10.30;;;6.45;;
1154;SDS011;566;48.414;9.118;2022-09-30T17:36:09;7.55;;;4.85;;
1154;SDS011;566;48.414;9.118;2022-09-30T17:38:36;12.93;;;6.68;;
1154;SDS011;566;48.414;9.118;2022-09-30T17:41:03;15.75;;;10.32;;
1154;SDS011;566;48.414;9.118;2022-09-30T17:43:48;12.43;;;8.13;;
1154;SDS011;566;48.414;9.118;2022-09-30T17:46:14;9.07;;;5.65;;
1154;SDS011;566;48.414;9.118;2022-09-30T17:48:42;9.25;;;5.70;;
1154;SDS011;566;48.414;9.118;2022-09-30T17:51:11;8.40;;;5.63;;
1154;SDS011;566;48.414;9.118;2022-09-30T17:53:40;17.48;;;9.48;;
1154;SDS011;566;48.414;9.118;2022-09-30T17:56:10;11.23;;;8.48;;
1154;SDS011;566;48.414;9.118;2022-09-30T17:58:41;18.25;;;10.35;;
1154;SDS011;566;48.414;9.118;2022-09-30T18:01:09;24.40;;;13.07;;
1154;SDS011;566;48.414;9.118;2022-09-30T18:03:35;24.73;;;11.25;;
1154;SDS011;566;48.414;9.118;2022-09-30T18:06:01;22.40;;;11.20;;
1154;SDS011;566;48.414;9.118;2022-09-30T18:08:27;11.07;;;7.80;;
1154;SDS011;566;48.414;9.118;2022-09-30T18:10:54;13.00;;;7.40;;
1154;SDS011;566;48.414;9.118;2022-09-30T18:13:22;18.05;;;9.90;;
1154;SDS011;566;48.414;9.118;2022-09-30T18:15:51;11.40;;;7.03;;
1154;SDS011;566;48.414;9.118;2022-09-30T18:18:17;10.15;;;7.57;;
1154;SDS011;566;48.414;9.118;2022-09-30T18:20:44;11.25;;;7.78;;
1154;SDS011;566;48.414;9.118;2022-09-30T18:23:11;11.38;;;8.00;;
1154;SDS011;566;48.414;9.118;2022-09-30T18:25:38;12.70;;;9.32;;
1154;SDS011;566;48.414;9.118;2022-09-30T18:28:05;13.43;;;8.65;;
1154;SDS011;566;48.414;9.118;2022-09-30T18:30:35;13.57;;;8.88;;
1154;SDS011;566;48.414;9.118;2022-09-30T18:33:01;13.90;;;9.90;;
1154;SDS011;566;48.414;9.118;2022-09-30T18:35:29;15.25;;;10.25;;
1154;SDS011;566;48.414;9.118;2022-09-30T18:37:55;14.27;;;10.30;;
1154;SDS011;566;48.414;9.118;2022-09-30T18:40:22;15.00;;;10.32;;
1154;SDS011;566;48.414;9.118;2022-09-30T18:42:53;15.18;;;10.73;;
1154;SDS011;566;48.414;9.118;2022-09-30T18:45:22;15.05;;;10.48;;
1154;SDS011;566;48.414;9.118;2022-09-30T18:47:52;15.02;;;10.98;;
1154;SDS011;566;48.414;9.118;2022-09-30T18:50:19;15.95;;;11.43;;
1154;SDS011;566;48.414;9.118;2022-09-30T18:52:47;15.85;;;11.48;;
1154;SDS011;566;48.414;9.118;2022-09-30T18:55:14;15.20;;;11.68;;
1154;SDS011;566;48.414;9.118;2022-09-30T18:57:41;15.65;;;11.38;;
1154;SDS011;566;48.414;9.118;2022-09-30T19:00:07;17.58;;;12.68;;
1154;SDS011;566;48.414;9.118;2022-09-30T19:02:35;17.23;;;12.85;;
1154;SDS011;566;48.414;9.118;2022-09-30T19:05:01;17.27;;;12.45;;
1154;SDS011;566;48.414;9.118;2022-09-30T19:07:27;36.63;;;29.60;;
1154;SDS011;566;48.414;9.118;2022-09-30T19:09:52;22.73;;;15.18;;
1154;SDS011;566;48.414;9.118;2022-09-30T19:12:18;30.95;;;23.10;;
1154;SDS011;566;48.414;9.118;2022-09-30T19:14:44;25.88;;;17.20;;
1154;SDS011;566;48.414;9.118;2022-09-30T19:17:13;17.73;;;12.38;;
1154;SDS011;566;48.414;9.118;2022-09-30T19:19:42;22.45;;;17.13;;
1154;SDS011;566;48.414;9.118;2022-09-30T19:22:10;18.75;;;13.30;;
1154;SDS011;566;48.414;9.118;2022-09-30T19:24:37;15.48;;;11.73;;
1154;SDS011;566;48.414;9.118;2022-09-30T19:27:04;18.05;;;13.60;;
1154;SDS011;566;48.414;9.118;2022-09-30T19:29:30;18.30;;;14.48;;
1154;SDS011;566;48.414;9.118;2022-09-30T19:31:57;27.70;;;20.52;;
1154;SDS011;566;48.414;9.118;2022-09-30T19:34:23;14.70;;;10.60;;
1154;SDS011;566;48.414;9.118;2022-09-30T19:36:50;13.13;;;10.15;;
1154;SDS011;566;48.414;9.118;2022-09-30T19:39:18;43.38;;;31.50;;
1154;SDS011;566;48.414;9.118;2022-09-30T19:41:44;24.23;;;17.27;;
1154;SDS011;566;48.414;9.118;2022-09-30T19:44:11;17.77;;;11.98;;